Buoy 33972

sailwx.info

Track history (hours):
 
Tides and Currents Weather Stations Pressure Air Temp Water Temp Dewpoint Dewpoint Depression Visibility Wind Speed Wind Dir Waves Ship Positions

Drifting buoy 33972

Last reported at 2018-Jan-19 20:00 UTC. Time now 2018-Jan-19 21:42 UTC.
Position S 53°13' W 044°56'.

Barometer 995.3 mb
Water temperature 5.6 ° C

Date/timePositionNaut miles runAvg speedWind from/ knotsBaromVisibWave heightAir tempDewpointWater temp
2018-Jan-19 20:00S 53°13' W 044°56'0 0.4 995.3 5.6
2018-Jan-19 19:00S 53°13' W 044°56'1 0.7 995.0 5.7
2018-Jan-19 18:00S 53°14' W 044°56'0 0.0 994.4 5.6
2018-Jan-19 17:00S 53°14' W 044°56'1 0.2 994.7 5.7
2018-Jan-19 13:00S 53°14' W 044°56'1 0.6 998.2 5.7
2018-Jan-19 12:00S 53°15' W 044°56'1 0.6 998.6 5.7
2018-Jan-19 11:00S 53°16' W 044°56'0 0.4 999.2 5.6
2018-Jan-19 10:00S 53°16' W 044°56'1 0.3 999.9 5.6
2018-Jan-19 08:00S 53°16' W 044°56'0 0.4 1000.1 5.6
2018-Jan-19 07:00S 53°16' W 044°57'0 0.4 1000.2 5.6
2018-Jan-19 06:00S 53°16' W 044°56'0 0.0 1000.0 5.6
2018-Jan-19 05:00S 53°16' W 044°56'0 0.4 1000.2 5.6
2018-Jan-19 04:00S 53°16' W 044°57'1 1.4 1000.4 5.6
2018-Jan-19 03:00S 53°17' W 044°56'0 0.0 1000.4 5.7
2018-Jan-19 02:00S 53°17' W 044°56'0 0.4 1000.1 5.7
2018-Jan-19 01:00S 53°17' W 044°55'1 0.9 999.8 5.7
2018-Jan-19 00:00S 53°18' W 044°54'1 0.3 999.3 5.7
2018-Jan-18 22:00S 53°19' W 044°55'1 0.9 998.6 5.8
2018-Jan-18 21:00S 53°19' W 044°53'1 0.6 998.3 5.8
2018-Jan-18 20:00S 53°20' W 044°53'0 0.0 998.0 5.8
2018-Jan-18 19:00S 53°20' W 044°53'1 0.6 997.6 5.8
2018-Jan-18 18:00S 53°20' W 044°53'2 0.3 997.4 5.9
2018-Jan-18 13:00S 53°22' W 044°52'1 0.7 997.3 5.6
2018-Jan-18 12:00S 53°22' W 044°51'0 0.4 997.4 5.6
2018-Jan-18 11:00S 53°22' W 044°50'1 0.6 997.7 5.5
2018-Jan-18 10:00S 53°23' W 044°50'1 0.5 997.6 5.5
2018-Jan-18 08:00S 53°23' W 044°49'1 1.3 997.2 5.5
2018-Jan-18 07:00S 53°25' W 044°49'0 0.0 997.1 5.5
2018-Jan-18 06:00S 53°25' W 044°49'2 0.8 997.5 5.5
2018-Jan-18 03:00S 53°27' W 044°48'0 0.4 998.6 5.5
2018-Jan-18 02:00S 53°27' W 044°49'0 0.4 998.9 5.5
2018-Jan-18 01:00S 53°27' W 044°49'0 0.0 999.1 5.5
2018-Jan-18 00:00S 53°27' W 044°49'1 0.9 998.7 5.5
2018-Jan-17 23:00S 53°28' W 044°48'0 0.0 997.8 5.5
2018-Jan-17 22:00S 53°28' W 044°48'0 0.0 997.2 5.5
2018-Jan-17 21:00S 53°28' W 044°48'2 1.9 996.7 5.5
2018-Jan-17 20:00S 53°26' W 044°46'2 2.1 995.9 5.5
2018-Jan-17 19:00S 53°28' W 044°47'4 4.3 995.0 5.5
2018-Jan-17 18:00S 53°32' W 044°46'0 0.0 993.5 5.5
2018-Jan-17 13:00S 53°32' W 044°46'1 0.6 990.1 5.5
2018-Jan-17 11:00S 53°34' W 044°46'1 0.7 990.6 5.6
2018-Jan-17 10:00S 53°33' W 044°47'0 0.4 991.6 5.5
2018-Jan-17 09:00S 53°33' W 044°47'0 0.0 992.8 5.5
2018-Jan-17 08:00S 53°33' W 044°47'0 0.2 993.5 5.5
2018-Jan-17 06:00S 53°33' W 044°48'1 0.7 995.5 5.6
2018-Jan-17 05:00S 53°33' W 044°47'0 0.4 996.2 5.6
2018-Jan-17 04:00S 53°33' W 044°46'0 0.0 997.3 5.6
2018-Jan-17 03:00S 53°33' W 044°46'1 0.6 998.2 5.6
2018-Jan-17 01:00S 53°34' W 044°46'0 0.0 999.2 5.6
2018-Jan-17 00:00S 53°34' W 044°46'1 0.7 999.5 5.6
2018-Jan-16 23:00S 53°35' W 044°46'1 0.7 1000.0 5.7
2018-Jan-16 22:00S 53°35' W 044°47'0 0.4 1000.3 5.7
2018-Jan-16 21:00S 53°35' W 044°46'0 0.4 1000.8 5.7
2018-Jan-16 20:00S 53°35' W 044°47'3 0.2 1001.1 5.7
2018-Jan-16 07:00S 53°38' W 044°46'0 0.0 1003.9 5.3
2018-Jan-16 06:00S 53°38' W 044°46'0 0.0 1003.6 5.3
2018-Jan-16 05:00S 53°38' W 044°46'1 1.2 1003.6 5.3
2018-Jan-16 04:00S 53°38' W 044°47'1 0.7 1003.5 5.3
2018-Jan-16 03:00S 53°38' W 044°47'0 0.0 1003.4 5.3
2018-Jan-16 02:00S 53°38' W 044°47'0 0.4 1003.0 5.3
2018-Jan-16 01:00S 53°38' W 044°46'1 0.7 1002.5 5.3
2018-Jan-16 00:00S 53°38' W 044°45'0 0.0 1002.4 5.3
2018-Jan-15 23:00S 53°38' W 044°45'0 0.0 1001.4 5.3
2018-Jan-15 22:00S 53°38' W 044°45'1 0.9 1000.8 5.3
2018-Jan-15 21:00S 53°38' W 044°44'0 0.0 1000.1 5.3
2018-Jan-15 20:00S 53°38' W 044°44'2 0.3 999.1 5.3
2018-Jan-15 13:00S 53°40' W 044°44'1 1.2 994.2 5.3
2018-Jan-15 12:00S 53°41' W 044°44'0 0.2 993.5 5.3
2018-Jan-15 10:00S 53°41' W 044°44'0 0.0 992.6 5.2
2018-Jan-15 08:00S 53°41' W 044°44'0 0.4 991.4 5.2
2018-Jan-15 07:00S 53°41' W 044°43'1 0.3 990.9 5.2
2018-Jan-15 05:00S 53°42' W 044°44'1 0.7 990.3 5.2
2018-Jan-15 04:00S 53°43' W 044°43'1 0.7 990.3 5.2
2018-Jan-15 03:00S 53°43' W 044°42'1 0.9 990.5 5.2
2018-Jan-15 02:00S 53°43' W 044°43'0 0.0 990.9 5.2
2018-Jan-15 01:00S 53°43' W 044°43'1 0.6 991.1 5.2
2018-Jan-15 00:00S 53°44' W 044°43'0 0.4 991.4 5.2
2018-Jan-14 23:00S 53°44' W 044°44'0 0.0 991.4 5.2
2018-Jan-14 22:00S 53°44' W 044°44'0 0.4 991.6 5.2
2018-Jan-14 21:00S 53°44' W 044°44'1 0.3 991.6 5.2
2018-Jan-14 19:00S 53°44' W 044°44'1 0.7 991.1 5.2
2018-Jan-14 18:00S 53°44' W 044°44'2 2.4 990.9 5.2
2018-Jan-14 17:00S 53°46' W 044°44'1 0.1 991.0 5.2
2018-Jan-14 12:00S 53°47' W 044°44'0 0.4 988.3 5.1
2018-Jan-14 11:00S 53°47' W 044°44'1 1.2 986.9 5.1
2018-Jan-14 10:00S 53°48' W 044°44'1 0.7 985.6 5.1
2018-Jan-14 09:00S 53°47' W 044°44'1 0.5 986.0 5.1
2018-Jan-14 07:00S 53°48' W 044°46'1 0.2 988.0 5.1
2018-Jan-14 04:00S 53°49' W 044°46'0 0.0 992.3 5.1
2018-Jan-14 03:00S 53°49' W 044°46'0 0.0 993.0 5.1
2018-Jan-14 02:00S 53°49' W 044°46'1 0.6 993.5 5.1
2018-Jan-14 01:00S 53°49' W 044°46'1 0.6 994.0 5.1
2018-Jan-14 00:00S 53°49' W 044°46'1 1.2 994.9 5.1
2018-Jan-13 23:00S 53°50' W 044°46'8 0.2 995.1 5.2
2018-Jan-12 13:00S 53°58' W 044°51'1 1.2 996.4 4.8
2018-Jan-12 12:00S 53°58' W 044°53'0 0.4 997.7 4.8
2018-Jan-12 11:00S 53°58' W 044°52'1 0.7 998.7 4.8
2018-Jan-12 10:00S 53°59' W 044°53'0 0.0 998.9 4.8
2018-Jan-12 09:00S 53°59' W 044°53'0 0.4 999.7 4.8
2018-Jan-12 08:00S 53°59' W 044°53'0 0.4 1000.1 4.8
2018-Jan-12 07:00S 53°59' W 044°54'0 0.0 999.8 4.8
2018-Jan-12 06:00S 53°59' W 044°54'0 0.0 1000.2 4.8
2018-Jan-12 05:00S 53°59' W 044°54'0 0.0 1000.5 4.8
2018-Jan-12 04:00S 53°59' W 044°54'1 0.3 1001.3 4.8
2018-Jan-12 02:00S 53°59' W 044°53'1 0.6 1002.4 4.8
2018-Jan-12 01:00S 54°00' W 044°53'1 1.1 1002.3 4.8
2018-Jan-12 00:00S 54°00' W 044°55'1 0.9 1002.9 4.8
2018-Jan-11 23:00S 54°01' W 044°56'0 0.4 1002.8 4.8
2018-Jan-11 22:00S 54°01' W 044°56'0 0.4 1003.2 4.8
2018-Jan-11 21:00S 54°01' W 044°56'0 0.0 1003.5 4.8
2018-Jan-11 20:00S 54°01' W 044°56'0 0.0 1003.4 4.8
2018-Jan-11 19:00S 54°01' W 044°56'1 1.2 1003.9 4.8
2018-Jan-11 18:00S 54°00' W 044°58'1 1.2 1004.3 4.8
2018-Jan-11 17:00S 54°01' W 044°56'1 0.2 1004.7 4.7
2018-Jan-11 13:00S 54°01' W 044°58'1 0.7 1006.0 4.7
2018-Jan-11 12:00S 54°02' W 044°57'0 0.0 1006.7 4.7
2018-Jan-11 11:00S 54°02' W 044°57'1 0.9 1007.2 4.6
2018-Jan-11 10:00S 54°02' W 044°58'0 0.0 1006.9 4.6
2018-Jan-11 09:00S 54°02' W 044°58'0 0.4 1007.4 4.6
2018-Jan-11 08:00S 54°02' W 044°59'0 0.0 1007.3 4.6
2018-Jan-11 07:00S 54°02' W 044°59'0 0.4 1007.7 4.6
2018-Jan-11 06:00S 54°02' W 044°59'1 0.7 1008.3 4.6
2018-Jan-11 05:00S 54°03' W 045°00'0 0.0 1009.0 4.6
2018-Jan-11 04:00S 54°03' W 045°00'1 0.7 1009.0 4.6
2018-Jan-11 03:00S 54°04' W 045°01'1 1.1 1009.1 4.6
2018-Jan-11 02:00S 54°04' W 045°02'1 0.9 1009.2 4.6
2018-Jan-11 01:00S 54°03' W 045°01'1 0.7 1009.1 4.6
2018-Jan-11 00:00S 54°04' W 045°01'0 0.4 1009.1 4.6
2018-Jan-10 23:00S 54°04' W 045°01'0 0.4 1008.8 4.7
2018-Jan-10 22:00S 54°04' W 045°02'0 0.0 1008.5 4.7
2018-Jan-10 21:00S 54°04' W 045°02'1 0.7 1008.3 4.7
2018-Jan-10 20:00S 54°04' W 045°02'1 0.6 1008.4 4.7
2018-Jan-10 19:00S 54°05' W 045°02'2 2.2 1008.4 4.7
2018-Jan-10 18:00S 54°05' W 045°06'0 0.0 1008.6 4.8
2018-Jan-10 17:00S 54°05' W 045°06'0 0.0 1009.0 4.7
2018-Jan-10 13:00S 54°05' W 045°06'0 0.2 1010.4 4.5
2018-Jan-10 11:00S 54°05' W 045°07'1 0.9 1009.6 4.5
2018-Jan-10 10:00S 54°06' W 045°05'1 1.2 1008.8 4.5
2018-Jan-10 09:00S 54°05' W 045°04'1 0.5 1007.4 4.5
2018-Jan-10 07:00S 54°06' W 045°05'0 0.0 1005.0 4.6
2018-Jan-10 06:00S 54°06' W 045°05'1 1.3 1003.8 4.6
2018-Jan-10 05:00S 54°07' W 045°04'2 0.9 1002.9 4.6
2018-Jan-10 03:00S 54°09' W 045°05'1 0.7 1001.2 4.6
2018-Jan-10 02:00S 54°10' W 045°05'1 0.3 1000.4 4.6
2018-Jan-10 00:00S 54°10' W 045°06'1 1.1 998.5 4.7
2018-Jan-09 23:00S 54°10' W 045°08'0 0.0 997.2 4.7
2018-Jan-09 22:00S 54°10' W 045°08'0 0.4 997.1 4.7
2018-Jan-09 21:00S 54°10' W 045°08'1 0.7 996.9 4.6
2018-Jan-09 20:00S 54°10' W 045°08'   997.7 4.6
Track history (hours):
 
Tides and Currents Weather Stations Pressure Air Temp Water Temp Dewpoint Dewpoint Depression Visibility Wind Speed Wind Dir Waves Ship Positions

Drifting buoy 33972

Last reported at 2018-Jan-19 20:00 UTC. Time now 2018-Jan-19 21:42 UTC.
Position S 53°13' W 044°56'.

Barometer 995.3 mb
Water temperature 5.6 ° C

Date/timePositionNaut miles runAvg speedWind from/ knotsBaromVisibWave heightAir tempDewpointWater temp
2018-Jan-19 20:00S 53°13' W 044°56'0 0.4 995.3 5.6
2018-Jan-19 19:00S 53°13' W 044°56'1 0.7 995.0 5.7
2018-Jan-19 18:00S 53°14' W 044°56'0 0.0 994.4 5.6
2018-Jan-19 17:00S 53°14' W 044°56'1 0.2 994.7 5.7
2018-Jan-19 13:00S 53°14' W 044°56'1 0.6 998.2 5.7
2018-Jan-19 12:00S 53°15' W 044°56'1 0.6 998.6 5.7
2018-Jan-19 11:00S 53°16' W 044°56'0 0.4 999.2 5.6
2018-Jan-19 10:00S 53°16' W 044°56'1 0.3 999.9 5.6
2018-Jan-19 08:00S 53°16' W 044°56'0 0.4 1000.1 5.6
2018-Jan-19 07:00S 53°16' W 044°57'0 0.4 1000.2 5.6
2018-Jan-19 06:00S 53°16' W 044°56'0 0.0 1000.0 5.6
2018-Jan-19 05:00S 53°16' W 044°56'0 0.4 1000.2 5.6
2018-Jan-19 04:00S 53°16' W 044°57'1 1.4 1000.4 5.6
2018-Jan-19 03:00S 53°17' W 044°56'0 0.0 1000.4 5.7
2018-Jan-19 02:00S 53°17' W 044°56'0 0.4 1000.1 5.7
2018-Jan-19 01:00S 53°17' W 044°55'1 0.9 999.8 5.7
2018-Jan-19 00:00S 53°18' W 044°54'1 0.3 999.3 5.7
2018-Jan-18 22:00S 53°19' W 044°55'1 0.9 998.6 5.8
2018-Jan-18 21:00S 53°19' W 044°53'1 0.6 998.3 5.8
2018-Jan-18 20:00S 53°20' W 044°53'0 0.0 998.0 5.8
2018-Jan-18 19:00S 53°20' W 044°53'1 0.6 997.6 5.8
2018-Jan-18 18:00S 53°20' W 044°53'2 0.3 997.4 5.9
2018-Jan-18 13:00S 53°22' W 044°52'1 0.7 997.3 5.6
2018-Jan-18 12:00S 53°22' W 044°51'0 0.4 997.4 5.6
2018-Jan-18 11:00S 53°22' W 044°50'1 0.6 997.7 5.5
2018-Jan-18 10:00S 53°23' W 044°50'1 0.5 997.6 5.5
2018-Jan-18 08:00S 53°23' W 044°49'1 1.3 997.2 5.5
2018-Jan-18 07:00S 53°25' W 044°49'0 0.0 997.1 5.5
2018-Jan-18 06:00S 53°25' W 044°49'2 0.8 997.5 5.5
2018-Jan-18 03:00S 53°27' W 044°48'0 0.4 998.6 5.5
2018-Jan-18 02:00S 53°27' W 044°49'0 0.4 998.9 5.5
2018-Jan-18 01:00S 53°27' W 044°49'0 0.0 999.1 5.5
2018-Jan-18 00:00S 53°27' W 044°49'1 0.9 998.7 5.5
2018-Jan-17 23:00S 53°28' W 044°48'0 0.0 997.8 5.5
2018-Jan-17 22:00S 53°28' W 044°48'0 0.0 997.2 5.5
2018-Jan-17 21:00S 53°28' W 044°48'2 1.9 996.7 5.5
2018-Jan-17 20:00S 53°26' W 044°46'2 2.1 995.9 5.5
2018-Jan-17 19:00S 53°28' W 044°47'4 4.3 995.0 5.5
2018-Jan-17 18:00S 53°32' W 044°46'0 0.0 993.5 5.5
2018-Jan-17 13:00S 53°32' W 044°46'1 0.6 990.1 5.5
2018-Jan-17 11:00S 53°34' W 044°46'1 0.7 990.6 5.6
2018-Jan-17 10:00S 53°33' W 044°47'0 0.4 991.6 5.5
2018-Jan-17 09:00S 53°33' W 044°47'0 0.0 992.8 5.5
2018-Jan-17 08:00S 53°33' W 044°47'0 0.2 993.5 5.5
2018-Jan-17 06:00S 53°33' W 044°48'1 0.7 995.5 5.6
2018-Jan-17 05:00S 53°33' W 044°47'0 0.4 996.2 5.6
2018-Jan-17 04:00S 53°33' W 044°46'0 0.0 997.3 5.6
2018-Jan-17 03:00S 53°33' W 044°46'1 0.6 998.2 5.6
2018-Jan-17 01:00S 53°34' W 044°46'0 0.0 999.2 5.6
2018-Jan-17 00:00S 53°34' W 044°46'1 0.7 999.5 5.6
2018-Jan-16 23:00S 53°35' W 044°46'1 0.7 1000.0 5.7
2018-Jan-16 22:00S 53°35' W 044°47'0 0.4 1000.3 5.7
2018-Jan-16 21:00S 53°35' W 044°46'0 0.4 1000.8 5.7
2018-Jan-16 20:00S 53°35' W 044°47'3 0.2 1001.1 5.7
2018-Jan-16 07:00S 53°38' W 044°46'0 0.0 1003.9 5.3
2018-Jan-16 06:00S 53°38' W 044°46'0 0.0 1003.6 5.3
2018-Jan-16 05:00S 53°38' W 044°46'1 1.2 1003.6 5.3
2018-Jan-16 04:00S 53°38' W 044°47'1 0.7 1003.5 5.3
2018-Jan-16 03:00S 53°38' W 044°47'0 0.0 1003.4 5.3
2018-Jan-16 02:00S 53°38' W 044°47'0 0.4 1003.0 5.3
2018-Jan-16 01:00S 53°38' W 044°46'1 0.7 1002.5 5.3
2018-Jan-16 00:00S 53°38' W 044°45'0 0.0 1002.4 5.3
2018-Jan-15 23:00S 53°38' W 044°45'0 0.0 1001.4 5.3
2018-Jan-15 22:00S 53°38' W 044°45'1 0.9 1000.8 5.3
2018-Jan-15 21:00S 53°38' W 044°44'0 0.0 1000.1 5.3
2018-Jan-15 20:00S 53°38' W 044°44'2 0.3 999.1 5.3
2018-Jan-15 13:00S 53°40' W 044°44'1 1.2 994.2 5.3
2018-Jan-15 12:00S 53°41' W 044°44'0 0.2 993.5 5.3
2018-Jan-15 10:00S 53°41' W 044°44'0 0.0 992.6 5.2
2018-Jan-15 08:00S 53°41' W 044°44'0 0.4 991.4 5.2
2018-Jan-15 07:00S 53°41' W 044°43'1 0.3 990.9 5.2
2018-Jan-15 05:00S 53°42' W 044°44'1 0.7 990.3 5.2
2018-Jan-15 04:00S 53°43' W 044°43'1 0.7 990.3 5.2
2018-Jan-15 03:00S 53°43' W 044°42'1 0.9 990.5 5.2
2018-Jan-15 02:00S 53°43' W 044°43'0 0.0 990.9 5.2
2018-Jan-15 01:00S 53°43' W 044°43'1 0.6 991.1 5.2
2018-Jan-15 00:00S 53°44' W 044°43'0 0.4 991.4 5.2
2018-Jan-14 23:00S 53°44' W 044°44'0 0.0 991.4 5.2
2018-Jan-14 22:00S 53°44' W 044°44'0 0.4 991.6 5.2
2018-Jan-14 21:00S 53°44' W 044°44'1 0.3 991.6 5.2
2018-Jan-14 19:00S 53°44' W 044°44'1 0.7 991.1 5.2
2018-Jan-14 18:00S 53°44' W 044°44'2 2.4 990.9 5.2
2018-Jan-14 17:00S 53°46' W 044°44'1 0.1 991.0 5.2
2018-Jan-14 12:00S 53°47' W 044°44'0 0.4 988.3 5.1
2018-Jan-14 11:00S 53°47' W 044°44'1 1.2 986.9 5.1
2018-Jan-14 10:00S 53°48' W 044°44'1 0.7 985.6 5.1
2018-Jan-14 09:00S 53°47' W 044°44'1 0.5 986.0 5.1
2018-Jan-14 07:00S 53°48' W 044°46'1 0.2 988.0 5.1
2018-Jan-14 04:00S 53°49' W 044°46'0 0.0 992.3 5.1
2018-Jan-14 03:00S 53°49' W 044°46'0 0.0 993.0 5.1
2018-Jan-14 02:00S 53°49' W 044°46'1 0.6 993.5 5.1
2018-Jan-14 01:00S 53°49' W 044°46'1 0.6 994.0 5.1
2018-Jan-14 00:00S 53°49' W 044°46'1 1.2 994.9 5.1
2018-Jan-13 23:00S 53°50' W 044°46'8 0.2 995.1 5.2
2018-Jan-12 13:00S 53°58' W 044°51'1 1.2 996.4 4.8
2018-Jan-12 12:00S 53°58' W 044°53'0 0.4 997.7 4.8
2018-Jan-12 11:00S 53°58' W 044°52'1 0.7 998.7 4.8
2018-Jan-12 10:00S 53°59' W 044°53'0 0.0 998.9 4.8
2018-Jan-12 09:00S 53°59' W 044°53'0 0.4 999.7 4.8
2018-Jan-12 08:00S 53°59' W 044°53'0 0.4 1000.1 4.8
2018-Jan-12 07:00S 53°59' W 044°54'0 0.0 999.8 4.8
2018-Jan-12 06:00S 53°59' W 044°54'0 0.0 1000.2 4.8
2018-Jan-12 05:00S 53°59' W 044°54'0 0.0 1000.5 4.8
2018-Jan-12 04:00S 53°59' W 044°54'1 0.3 1001.3 4.8
2018-Jan-12 02:00S 53°59' W 044°53'1 0.6 1002.4 4.8
2018-Jan-12 01:00S 54°00' W 044°53'1 1.1 1002.3 4.8
2018-Jan-12 00:00S 54°00' W 044°55'1 0.9 1002.9 4.8
2018-Jan-11 23:00S 54°01' W 044°56'0 0.4 1002.8 4.8
2018-Jan-11 22:00S 54°01' W 044°56'0 0.4 1003.2 4.8
2018-Jan-11 21:00S 54°01' W 044°56'0 0.0 1003.5 4.8
2018-Jan-11 20:00S 54°01' W 044°56'0 0.0 1003.4 4.8
2018-Jan-11 19:00S 54°01' W 044°56'1 1.2 1003.9 4.8
2018-Jan-11 18:00S 54°00' W 044°58'1 1.2 1004.3 4.8
2018-Jan-11 17:00S 54°01' W 044°56'1 0.2 1004.7 4.7
2018-Jan-11 13:00S 54°01' W 044°58'1 0.7 1006.0 4.7
2018-Jan-11 12:00S 54°02' W 044°57'0 0.0 1006.7 4.7
2018-Jan-11 11:00S 54°02' W 044°57'1 0.9 1007.2 4.6
2018-Jan-11 10:00S 54°02' W 044°58'0 0.0 1006.9 4.6
2018-Jan-11 09:00S 54°02' W 044°58'0 0.4 1007.4 4.6
2018-Jan-11 08:00S 54°02' W 044°59'0 0.0 1007.3 4.6
2018-Jan-11 07:00S 54°02' W 044°59'0 0.4 1007.7 4.6
2018-Jan-11 06:00S 54°02' W 044°59'1 0.7 1008.3 4.6
2018-Jan-11 05:00S 54°03' W 045°00'0 0.0 1009.0 4.6
2018-Jan-11 04:00S 54°03' W 045°00'1 0.7 1009.0 4.6
2018-Jan-11 03:00S 54°04' W 045°01'1 1.1 1009.1 4.6
2018-Jan-11 02:00S 54°04' W 045°02'1 0.9 1009.2 4.6
2018-Jan-11 01:00S 54°03' W 045°01'1 0.7 1009.1 4.6
2018-Jan-11 00:00S 54°04' W 045°01'0 0.4 1009.1 4.6
2018-Jan-10 23:00S 54°04' W 045°01'0 0.4 1008.8 4.7
2018-Jan-10 22:00S 54°04' W 045°02'0 0.0 1008.5 4.7
2018-Jan-10 21:00S 54°04' W 045°02'1 0.7 1008.3 4.7
2018-Jan-10 20:00S 54°04' W 045°02'1 0.6 1008.4 4.7
2018-Jan-10 19:00S 54°05' W 045°02'2 2.2 1008.4 4.7
2018-Jan-10 18:00S 54°05' W 045°06'0 0.0 1008.6 4.8
2018-Jan-10 17:00S 54°05' W 045°06'0 0.0 1009.0 4.7
2018-Jan-10 13:00S 54°05' W 045°06'0 0.2 1010.4 4.5
2018-Jan-10 11:00S 54°05' W 045°07'1 0.9 1009.6 4.5
2018-Jan-10 10:00S 54°06' W 045°05'1 1.2 1008.8 4.5
2018-Jan-10 09:00S 54°05' W 045°04'1 0.5 1007.4 4.5
2018-Jan-10 07:00S 54°06' W 045°05'0 0.0 1005.0 4.6
2018-Jan-10 06:00S 54°06' W 045°05'1 1.3 1003.8 4.6
2018-Jan-10 05:00S 54°07' W 045°04'2 0.9 1002.9 4.6
2018-Jan-10 03:00S 54°09' W 045°05'1 0.7 1001.2 4.6
2018-Jan-10 02:00S 54°10' W 045°05'1 0.3 1000.4 4.6
2018-Jan-10 00:00S 54°10' W 045°06'1 1.1 998.5 4.7
2018-Jan-09 23:00S 54°10' W 045°08'0 0.0 997.2 4.7
2018-Jan-09 22:00S 54°10' W 045°08'0 0.4 997.1 4.7
2018-Jan-09 21:00S 54°10' W 045°08'1 0.7 996.9 4.6
2018-Jan-09 20:00S 54°10' W 045°08'   997.7 4.6

Dump ship's entire track history